createdAt,value
2023-03-01T00:01:45.808Z,41.13
2023-03-01T00:04:14.510Z,40.87
2023-03-01T00:06:47.273Z,41.27
2023-03-01T00:09:16.353Z,41.17
2023-03-01T00:11:46.040Z,40.53
2023-03-01T00:14:14.755Z,40.70
2023-03-01T00:16:46.196Z,40.50
2023-03-01T00:19:17.555Z,40.57
2023-03-01T00:21:46.926Z,41.47
2023-03-01T00:24:15.194Z,39.97
2023-03-01T00:26:43.918Z,41.40
2023-03-01T00:29:12.461Z,41.73
2023-03-01T00:31:40.845Z,42.93
2023-03-01T00:34:11.539Z,42.67
2023-03-01T00:36:39.785Z,41.10
2023-03-01T00:39:13.113Z,42.27
2023-03-01T00:41:41.517Z,42.93
2023-03-01T00:44:10.163Z,42.60
2023-03-01T00:46:38.269Z,43.07
2023-03-01T00:49:06.607Z,42.57
2023-03-01T00:51:36.084Z,42.00
2023-03-01T00:54:05.136Z,41.93
2023-03-01T00:56:34.051Z,41.57
2023-03-01T00:59:02.575Z,42.23
2023-03-01T01:01:33.210Z,42.77
2023-03-01T01:04:03.664Z,42.53
2023-03-01T01:06:33.871Z,42.00
2023-03-01T01:09:05.222Z,43.20
2023-03-01T01:11:34.066Z,42.03
2023-03-01T01:14:02.219Z,42.20
2023-03-01T01:16:31.650Z,43.07
2023-03-01T01:19:00.549Z,42.60
2023-03-01T01:21:29.471Z,44.37
2023-03-01T01:23:57.875Z,44.37
2023-03-01T01:26:29.520Z,44.57
2023-03-01T01:28:59.103Z,43.13
2023-03-01T01:31:29.212Z,43.60
2023-03-01T01:33:58.088Z,44.33
2023-03-01T01:36:26.561Z,43.97
2023-03-01T01:38:55.186Z,44.50
2023-03-01T01:41:23.922Z,44.87
2023-03-01T01:44:16.333Z,43.47
2023-03-01T01:46:46.713Z,44.60
2023-03-01T01:49:25.018Z,45.00
2023-03-01T01:52:01.965Z,45.73
2023-03-01T01:54:37.851Z,45.13
2023-03-01T01:57:11.354Z,44.70
2023-03-01T01:59:43.474Z,46.23
2023-03-01T02:02:11.990Z,45.90
2023-03-01T02:04:40.515Z,45.67
2023-03-01T02:07:15.575Z,45.50
2023-03-01T02:09:47.657Z,46.37
2023-03-01T02:12:21.381Z,46.43
2023-03-01T02:14:51.354Z,45.73
2023-03-01T02:17:20.687Z,44.73
2023-03-01T02:20:02.117Z,45.73
2023-03-01T02:22:33.251Z,45.37
2023-03-01T02:25:12.404Z,46.13
2023-03-01T02:27:51.651Z,46.13
2023-03-01T02:30:23.159Z,45.53
2023-03-01T02:32:53.503Z,45.43
2023-03-01T02:35:22.092Z,44.67
2023-03-01T02:37:50.906Z,44.63
2023-03-01T02:40:22.650Z,46.10
2023-03-01T02:42:54.749Z,45.40
2023-03-01T02:45:24.775Z,45.33
2023-03-01T02:47:55.396Z,47.40
2023-03-01T02:50:48.652Z,46.30
2023-03-01T02:53:25.705Z,44.67
2023-03-01T02:55:53.839Z,45.67
2023-03-01T02:58:22.111Z,46.03
2023-03-01T03:00:51.915Z,46.50
2023-03-01T03:03:22.379Z,45.60
2023-03-01T03:05:51.139Z,45.97
2023-03-01T03:08:25.225Z,47.33
2023-03-01T03:10:53.992Z,46.00
2023-03-01T03:13:23.103Z,46.50
2023-03-01T03:15:53.268Z,46.20
2023-03-01T03:18:21.922Z,45.63
2023-03-01T03:20:53.900Z,46.43
2023-03-01T03:23:23.717Z,46.10
2023-03-01T03:25:52.307Z,45.87
2023-03-01T03:28:20.697Z,44.90
2023-03-01T03:30:50.617Z,46.60
2023-03-01T03:33:20.398Z,50.43
2023-03-01T03:35:50.617Z,47.80
2023-03-01T03:38:23.249Z,46.50
2023-03-01T03:40:53.133Z,47.17
2023-03-01T03:43:23.268Z,46.77
2023-03-01T03:45:53.218Z,47.97
2023-03-01T03:48:23.117Z,48.40
2023-03-01T03:50:53.024Z,47.67
2023-03-01T03:53:22.735Z,48.73
2023-03-01T03:55:52.763Z,51.87
2023-03-01T03:58:22.642Z,48.40
2023-03-01T04:00:53.701Z,46.27
2023-03-01T04:03:23.739Z,49.13
2023-03-01T04:05:52.525Z,45.03
2023-03-01T04:08:22.366Z,45.30
2023-03-01T04:10:52.325Z,46.37
2023-03-01T04:13:22.901Z,174.50
2023-03-01T04:15:51.537Z,246.97
2023-03-01T04:18:21.721Z,216.07
2023-03-01T04:20:53.300Z,222.20
2023-03-01T04:23:24.216Z,272.67
2023-03-01T04:25:56.367Z,455.40
2023-03-01T04:28:26.477Z,368.60
2023-03-01T04:30:55.460Z,449.70
2023-03-01T04:33:23.931Z,332.73
2023-03-01T04:35:53.630Z,241.93
2023-03-01T04:38:22.480Z,287.87
2023-03-01T04:40:50.475Z,251.30
2023-03-01T04:43:18.714Z,554.63
2023-03-01T04:45:46.830Z,386.63
2023-03-01T04:48:14.868Z,622.60
2023-03-01T04:50:42.859Z,634.43
2023-03-01T04:53:12.298Z,374.40
2023-03-01T04:55:40.316Z,461.30
2023-03-01T04:58:08.308Z,454.53
2023-03-01T05:00:36.713Z,422.17
2023-03-01T05:03:04.821Z,444.57
2023-03-01T05:05:34.650Z,143.40
2023-03-01T05:08:05.193Z,202.40
2023-03-01T05:10:37.224Z,357.03
2023-03-01T05:13:05.884Z,313.83
2023-03-01T05:15:34.380Z,454.23
2023-03-01T05:18:02.700Z,341.23
2023-03-01T05:20:32.230Z,335.27
2023-03-01T05:23:06.396Z,323.03
2023-03-01T05:25:41.175Z,368.73
2023-03-01T05:28:13.348Z,198.73
2023-03-01T05:30:48.313Z,182.33
2023-03-01T05:33:16.644Z,403.67
2023-03-01T05:35:49.667Z,168.73
2023-03-01T05:38:19.004Z,178.40
2023-03-01T05:40:50.426Z,121.23
2023-03-01T05:43:19.644Z,277.00
2023-03-01T05:45:48.046Z,54.73
2023-03-01T05:48:16.393Z,50.57
2023-03-01T05:50:46.676Z,176.50
2023-03-01T05:53:16.297Z,293.43
2023-03-01T05:55:44.951Z,261.83
2023-03-01T05:58:16.228Z,92.03
2023-03-01T06:00:45.409Z,40.97
2023-03-01T06:03:14.812Z,100.90
2023-03-01T06:05:44.247Z,41.50
2023-03-01T06:08:13.122Z,135.30
2023-03-01T06:10:42.181Z,396.93
2023-03-01T06:13:10.304Z,61.70
2023-03-01T06:15:39.705Z,41.57
2023-03-01T06:18:08.153Z,67.17
2023-03-01T06:20:36.499Z,38.67
2023-03-01T06:23:05.178Z,38.60
2023-03-01T06:25:33.503Z,38.77
2023-03-01T06:28:01.617Z,39.70
2023-03-01T06:30:29.867Z,40.47
2023-03-01T06:33:02.494Z,40.13
2023-03-01T06:35:33.088Z,40.43
2023-03-01T06:38:02.406Z,39.43
2023-03-01T06:40:32.274Z,39.47
2023-03-01T06:43:01.844Z,40.03
2023-03-01T06:45:30.805Z,39.70
2023-03-01T06:48:10.292Z,40.13
2023-03-01T06:50:39.359Z,40.50
2023-03-01T06:53:07.479Z,41.50
2023-03-01T06:55:35.620Z,37.93
2023-03-01T06:58:05.500Z,38.93
2023-03-01T07:00:34.290Z,39.70
2023-03-01T07:03:04.370Z,40.73
2023-03-01T07:05:35.746Z,40.17
2023-03-01T07:08:03.830Z,40.83
2023-03-01T07:10:31.830Z,42.03
2023-03-01T07:13:00.227Z,42.17
2023-03-01T07:15:29.369Z,42.20
2023-03-01T07:17:58.894Z,41.10
2023-03-01T07:20:27.377Z,39.13
2023-03-01T07:22:59.438Z,42.50
2023-03-01T07:25:27.662Z,41.70
2023-03-01T07:27:56.200Z,42.63
2023-03-01T07:30:26.984Z,44.10
2023-03-01T07:32:55.906Z,43.17
2023-03-01T07:35:24.806Z,43.57
2023-03-01T07:37:53.033Z,43.67
2023-03-01T07:40:22.603Z,43.13
2023-03-01T07:42:50.533Z,44.50
2023-03-01T07:45:18.538Z,44.43
2023-03-01T07:47:46.505Z,44.67
2023-03-01T07:50:14.724Z,45.13
2023-03-01T07:52:42.719Z,43.57
2023-03-01T07:55:11.780Z,44.73
2023-03-01T07:57:41.706Z,42.30
2023-03-01T08:00:12.801Z,43.53
2023-03-01T08:02:42.969Z,44.07
2023-03-01T08:05:12.179Z,43.50
2023-03-01T08:07:40.292Z,43.80
2023-03-01T08:10:09.157Z,43.67
2023-03-01T08:12:37.204Z,44.37
2023-03-01T08:15:08.139Z,44.27
2023-03-01T08:17:36.298Z,42.17
2023-03-01T08:20:07.438Z,44.17
2023-03-01T08:22:35.796Z,42.67
2023-03-01T08:25:03.876Z,43.03
2023-03-01T08:27:31.968Z,42.70
2023-03-01T08:29:59.911Z,42.40
2023-03-01T08:32:29.574Z,42.77
2023-03-01T08:34:57.942Z,42.27
2023-03-01T08:37:25.989Z,43.73
2023-03-01T08:39:54.054Z,42.53
2023-03-01T08:42:22.173Z,40.97
2023-03-01T08:44:50.252Z,39.73
2023-03-01T08:47:18.509Z,40.20
2023-03-01T08:49:48.052Z,39.40
2023-03-01T08:52:16.138Z,40.13
2023-03-01T08:54:44.284Z,38.83
2023-03-01T08:57:13.769Z,39.27
2023-03-01T08:59:42.498Z,39.60
2023-03-01T09:02:15.607Z,37.13
2023-03-01T09:04:44.343Z,34.53
2023-03-01T09:07:13.954Z,34.20
2023-03-01T09:09:42.057Z,31.67
2023-03-01T09:12:10.312Z,30.77
2023-03-01T09:14:39.878Z,28.60
2023-03-01T09:17:08.004Z,27.43
2023-03-01T09:19:36.304Z,27.27
2023-03-01T09:22:05.686Z,26.73
2023-03-01T09:24:35.921Z,24.40
2023-03-01T09:27:04.162Z,25.53
2023-03-01T09:29:32.338Z,25.73
2023-03-01T09:32:00.647Z,24.30
2023-03-01T09:34:28.709Z,23.90
2023-03-01T09:36:56.864Z,25.10
2023-03-01T09:39:25.068Z,25.23
2023-03-01T09:42:03.156Z,27.97
2023-03-01T09:44:36.599Z,20.07
2023-03-01T09:47:05.913Z,22.30
2023-03-01T09:49:37.483Z,23.73
2023-03-01T09:52:14.721Z,22.20
2023-03-01T09:54:42.759Z,19.90
2023-03-01T09:57:28.520Z,22.67
2023-03-01T10:00:12.455Z,23.37
2023-03-01T10:02:45.498Z,17.07
2023-03-01T10:05:29.685Z,16.30
2023-03-01T10:08:16.057Z,13.30
2023-03-01T10:10:48.395Z,8.20
2023-03-01T10:13:23.989Z,9.63
2023-03-01T10:15:56.211Z,11.87
2023-03-01T10:18:28.358Z,10.07
2023-03-01T10:20:59.470Z,11.97
2023-03-01T10:23:29.314Z,11.20
2023-03-01T10:26:18.397Z,7.83
2023-03-01T10:29:00.190Z,10.30
2023-03-01T10:31:38.268Z,9.43
2023-03-01T10:34:11.815Z,9.73
2023-03-01T10:36:43.308Z,9.17
2023-03-01T10:39:17.540Z,10.17
2023-03-01T10:41:57.545Z,7.77
2023-03-01T10:44:46.159Z,9.43
2023-03-01T10:47:21.459Z,7.63
2023-03-01T10:50:08.450Z,8.17
2023-03-01T10:52:38.513Z,6.93
2023-03-01T10:55:27.147Z,8.67
2023-03-01T10:58:10.226Z,11.60
2023-03-01T11:00:49.854Z,11.97
2023-03-01T11:03:22.727Z,9.40
2023-03-01T11:05:57.188Z,7.57
2023-03-01T11:08:41.347Z,7.90
2023-03-01T11:11:35.027Z,9.47
2023-03-01T11:14:19.680Z,10.80
2023-03-01T11:17:03.490Z,12.23
2023-03-01T11:19:31.907Z,8.43
2023-03-01T11:22:04.967Z,11.23
2023-03-01T11:25:07.105Z,11.73
2023-03-01T11:27:43.980Z,11.30
2023-03-01T11:30:21.995Z,11.27
2023-03-01T11:32:58.882Z,9.17
2023-03-01T11:35:29.916Z,11.43
2023-03-01T11:38:07.042Z,11.87
2023-03-01T11:40:39.430Z,13.53
2023-03-01T11:43:17.717Z,11.37
2023-03-01T11:45:57.066Z,10.13
2023-03-01T11:48:50.106Z,13.23
2023-03-01T11:51:27.845Z,12.20
2023-03-01T11:54:24.062Z,11.00
2023-03-01T11:56:59.930Z,12.47
2023-03-01T12:00:04.225Z,12.50
2023-03-01T12:03:03.764Z,11.37
2023-03-01T12:06:04.714Z,13.33
2023-03-01T12:08:40.130Z,13.73
2023-03-01T12:11:22.641Z,12.27
2023-03-01T12:14:14.406Z,13.07
2023-03-01T12:17:14.563Z,14.73
2023-03-01T12:19:58.746Z,12.03
2023-03-01T12:22:33.080Z,13.27
2023-03-01T12:25:16.863Z,15.70
2023-03-01T12:28:07.519Z,13.33
2023-03-01T12:30:53.644Z,14.57
2023-03-01T12:33:27.882Z,13.90
2023-03-01T12:36:29.749Z,16.27
2023-03-01T12:39:09.124Z,14.40
2023-03-01T12:41:51.190Z,12.70
2023-03-01T12:44:45.530Z,15.33
2023-03-01T12:47:25.502Z,13.10
2023-03-01T12:49:58.463Z,11.40
2023-03-01T12:52:40.991Z,12.87
2023-03-01T12:55:19.752Z,11.67
2023-03-01T12:57:57.075Z,12.33
2023-03-01T13:00:33.681Z,12.27
2023-03-01T13:03:14.311Z,11.10
2023-03-01T13:05:52.667Z,11.60
2023-03-01T13:08:29.502Z,11.33
2023-03-01T13:11:01.301Z,10.77
2023-03-01T13:13:32.258Z,10.47
2023-03-01T13:16:25.046Z,13.00
2023-03-01T13:19:09.220Z,10.83
2023-03-01T13:21:37.605Z,11.37
2023-03-01T13:24:06.510Z,11.20
2023-03-01T13:27:13.523Z,10.30
2023-03-01T13:29:49.621Z,10.10
2023-03-01T13:32:43.180Z,11.70
2023-03-01T13:35:46.373Z,10.73
2023-03-01T13:38:40.462Z,9.13
2023-03-01T13:41:09.511Z,8.97
2023-03-01T13:43:41.253Z,9.23
2023-03-01T13:46:14.992Z,9.97
2023-03-01T13:48:45.179Z,7.13
2023-03-01T13:51:14.685Z,9.33
2023-03-01T13:53:48.945Z,7.43
2023-03-01T13:56:20.725Z,8.23
2023-03-01T13:58:57.520Z,6.70
2023-03-01T14:01:31.293Z,7.10
2023-03-01T14:04:00.824Z,9.63
2023-03-01T14:06:31.476Z,9.00
2023-03-01T14:09:12.702Z,8.73
2023-03-01T14:12:16.949Z,8.50
2023-03-01T14:15:05.156Z,9.10
2023-03-01T14:17:48.101Z,10.27
2023-03-01T14:20:21.456Z,7.77
2023-03-01T14:22:51.586Z,5.63
2023-03-01T14:25:24.066Z,7.23
2023-03-01T14:28:04.713Z,7.73
2023-03-01T14:30:40.061Z,9.40
2023-03-01T14:33:20.536Z,9.00
2023-03-01T14:35:59.322Z,6.83
2023-03-01T14:38:35.867Z,8.50
2023-03-01T14:41:07.240Z,7.77
2023-03-01T14:43:36.156Z,9.23
2023-03-01T14:46:06.559Z,7.83
2023-03-01T14:48:35.112Z,7.23
2023-03-01T14:51:03.346Z,9.90
2023-03-01T14:53:40.048Z,6.03
2023-03-01T14:56:18.690Z,6.90
2023-03-01T14:58:48.705Z,9.23
2023-03-01T15:01:20.551Z,7.27
2023-03-01T15:03:50.356Z,9.67
2023-03-01T15:06:21.520Z,8.20
2023-03-01T15:08:52.814Z,9.33
2023-03-01T15:11:25.443Z,8.37
2023-03-01T15:13:55.144Z,7.77
2023-03-01T15:16:26.777Z,8.17
2023-03-01T15:18:58.064Z,8.87
2023-03-01T15:21:28.850Z,8.60
2023-03-01T15:23:58.886Z,8.17
2023-03-01T15:26:30.478Z,7.73
2023-03-01T15:29:01.368Z,5.67
2023-03-01T15:31:36.232Z,9.10
2023-03-01T15:34:24.481Z,6.78
2023-03-01T15:36:55.475Z,6.38
2023-03-01T15:39:40.876Z,6.57
2023-03-01T15:42:12.734Z,7.22
2023-03-01T15:44:44.359Z,7.40
2023-03-01T15:47:28.559Z,9.07
2023-03-01T15:49:57.767Z,8.10
2023-03-01T15:52:30.603Z,8.93
2023-03-01T15:55:01.469Z,9.20
2023-03-01T15:57:29.945Z,8.50
2023-03-01T15:59:59.420Z,8.60
2023-03-01T16:02:31.565Z,7.93
2023-03-01T16:04:59.967Z,7.13
2023-03-01T16:07:32.214Z,8.03
2023-03-01T16:10:00.571Z,7.33
2023-03-01T16:12:28.976Z,8.73
2023-03-01T16:14:58.774Z,8.57
2023-03-01T16:17:28.336Z,8.33
2023-03-01T16:20:09.894Z,8.67
2023-03-01T16:25:46.378Z,7.70
2023-03-01T16:44:25.166Z,6.53
2023-03-01T16:46:54.497Z,11.27
2023-03-01T16:49:22.789Z,9.00
2023-03-01T16:51:51.192Z,8.93
2023-03-01T16:54:19.440Z,8.90
2023-03-01T16:56:47.634Z,8.97
2023-03-01T16:59:15.863Z,9.50
2023-03-01T17:01:44.857Z,9.17
2023-03-01T17:04:15.130Z,10.53
2023-03-01T17:06:43.287Z,8.40
2023-03-01T17:09:12.802Z,7.67
2023-03-01T17:11:41.252Z,6.77
2023-03-01T17:14:09.615Z,7.73
2023-03-01T17:16:41.199Z,13.67
2023-03-01T17:19:09.793Z,10.70
2023-03-01T17:21:39.782Z,11.47
2023-03-01T17:24:08.332Z,12.57
2023-03-01T17:26:36.707Z,8.23
2023-03-01T17:29:05.621Z,11.30
2023-03-01T17:31:34.946Z,10.77
2023-03-01T17:34:03.400Z,14.27
2023-03-01T17:36:34.641Z,8.67
2023-03-01T17:39:04.600Z,14.53
2023-03-01T17:41:33.376Z,8.80
2023-03-01T17:44:02.099Z,10.67
2023-03-01T17:46:30.614Z,10.87
2023-03-01T17:48:58.873Z,10.60
2023-03-01T17:51:27.057Z,11.07
2023-03-01T17:53:55.140Z,8.93
2023-03-01T17:56:25.079Z,9.87
2023-03-01T17:58:53.523Z,10.63
2023-03-01T18:01:23.603Z,13.13
2023-03-01T18:03:52.935Z,10.63
2023-03-01T18:06:22.865Z,11.00
2023-03-01T18:08:51.280Z,9.67
2023-03-01T18:11:20.222Z,10.93
2023-03-01T18:13:51.312Z,12.13
2023-03-01T18:16:21.323Z,10.83
2023-03-01T18:18:53.484Z,11.87
2023-03-01T18:21:23.620Z,13.80
2023-03-01T18:23:52.263Z,12.53
2023-03-01T18:26:22.502Z,12.30
2023-03-01T18:28:53.994Z,12.43
2023-03-01T18:31:23.853Z,10.17
2023-03-01T18:33:55.811Z,9.93
2023-03-01T18:36:26.460Z,12.60
2023-03-01T18:38:56.373Z,10.10
2023-03-01T18:41:26.724Z,12.33
2023-03-01T18:43:57.577Z,12.47
2023-03-01T18:46:26.062Z,11.07
2023-03-01T18:48:55.398Z,11.50
2023-03-01T18:51:25.732Z,12.17
2023-03-01T18:53:54.183Z,12.80
2023-03-01T18:56:22.679Z,10.47
2023-03-01T18:58:51.120Z,12.57
2023-03-01T19:01:23.483Z,10.97
2023-03-01T19:03:52.717Z,12.07
2023-03-01T19:06:21.479Z,13.93
2023-03-01T19:08:49.665Z,13.00
2023-03-01T19:11:18.278Z,13.53
2023-03-01T19:13:47.870Z,13.57
2023-03-01T19:16:19.714Z,11.43
2023-03-01T19:18:51.388Z,11.27
2023-03-01T19:21:20.880Z,11.90
2023-03-01T19:23:49.800Z,12.67
2023-03-01T19:26:20.312Z,13.60
2023-03-01T19:28:48.692Z,12.73
2023-03-01T19:31:19.465Z,12.33
2023-03-01T19:33:50.075Z,11.90
2023-03-01T19:36:18.651Z,11.03
2023-03-01T19:38:46.721Z,13.77
2023-03-01T19:41:17.809Z,12.63
2023-03-01T19:43:46.950Z,11.90
2023-03-01T19:46:16.515Z,13.53
2023-03-01T19:48:45.902Z,14.57
2023-03-01T19:51:15.316Z,11.90
2023-03-01T19:53:43.942Z,13.57
2023-03-01T19:56:12.302Z,12.37
2023-03-01T19:58:41.086Z,11.27
2023-03-01T20:01:16.657Z,14.57
2023-03-01T20:03:45.973Z,13.53
2023-03-01T20:06:16.985Z,12.20
2023-03-01T20:08:45.564Z,14.77
2023-03-01T20:11:15.321Z,15.33
2023-03-01T20:13:43.682Z,14.40
2023-03-01T20:16:12.048Z,12.93
2023-03-01T20:18:40.156Z,15.07
2023-03-01T20:21:18.143Z,14.77
2023-03-01T20:23:53.624Z,13.53
2023-03-01T20:26:23.396Z,17.10
2023-03-01T20:28:53.845Z,17.27
2023-03-01T20:31:23.999Z,17.50
2023-03-01T20:33:52.337Z,16.80
2023-03-01T20:36:20.607Z,15.37
2023-03-01T20:38:48.959Z,14.80
2023-03-01T20:41:18.464Z,14.93
2023-03-01T20:43:53.682Z,16.03
2023-03-01T20:46:23.937Z,17.37
2023-03-01T20:48:52.687Z,16.57
2023-03-01T20:51:21.724Z,15.03
2023-03-01T20:53:49.945Z,16.63
2023-03-01T20:56:21.468Z,16.93
2023-03-01T20:58:49.526Z,15.07
2023-03-01T21:01:19.636Z,16.40
2023-03-01T21:03:48.027Z,16.13
2023-03-01T21:06:16.399Z,16.13
2023-03-01T21:08:44.617Z,15.50
2023-03-01T21:11:16.723Z,16.17
2023-03-01T21:13:46.576Z,15.60
2023-03-01T21:16:15.389Z,15.97
2023-03-01T21:18:43.840Z,16.10
2023-03-01T21:21:13.798Z,16.47
2023-03-01T21:23:43.651Z,17.47
2023-03-01T21:26:13.407Z,20.20
2023-03-01T21:28:42.906Z,20.43
2023-03-01T21:31:13.815Z,21.23
2023-03-01T21:33:45.094Z,19.27
2023-03-01T21:36:14.034Z,17.30
2023-03-01T21:38:44.384Z,19.20
2023-03-01T21:41:16.248Z,18.83
2023-03-01T21:43:45.887Z,19.73
2023-03-01T21:46:17.206Z,19.27
2023-03-01T21:48:47.040Z,16.90
2023-03-01T21:51:20.950Z,18.87
2023-03-01T21:53:50.615Z,19.90
2023-03-01T21:56:20.960Z,21.93
2023-03-01T21:58:49.685Z,19.07
2023-03-01T22:01:21.826Z,20.40
2023-03-01T22:03:50.300Z,19.27
2023-03-01T22:06:20.686Z,19.83
2023-03-01T22:08:50.965Z,21.53
2023-03-01T22:11:21.440Z,19.03
2023-03-01T22:13:52.431Z,19.33
2023-03-01T22:16:24.133Z,20.47
2023-03-01T22:18:52.674Z,22.30
2023-03-01T22:21:23.085Z,20.43
2023-03-01T22:23:52.004Z,24.57
2023-03-01T22:26:25.378Z,20.93
2023-03-01T22:28:54.365Z,21.30
2023-03-01T22:31:24.508Z,19.43
2023-03-01T22:33:53.042Z,18.20
2023-03-01T22:36:21.777Z,18.20
2023-03-01T22:38:50.400Z,20.77
2023-03-01T22:41:18.459Z,16.03
2023-03-01T22:43:47.006Z,19.67
2023-03-01T22:46:17.604Z,22.13
2023-03-01T22:48:48.082Z,18.00
2023-03-01T22:51:17.086Z,19.23
2023-03-01T22:53:45.750Z,17.27
2023-03-01T22:56:15.802Z,18.63
2023-03-01T22:58:44.336Z,21.73
2023-03-01T23:01:14.605Z,18.23
2023-03-01T23:03:43.101Z,19.27
2023-03-01T23:06:13.406Z,18.07
2023-03-01T23:08:42.108Z,18.47
2023-03-01T23:11:13.377Z,19.27
2023-03-01T23:13:41.955Z,19.73
2023-03-01T23:16:10.784Z,18.60
2023-03-01T23:18:39.132Z,19.33
2023-03-01T23:21:14.288Z,18.67
2023-03-01T23:23:43.297Z,18.50
2023-03-01T23:26:12.004Z,20.57
2023-03-01T23:28:40.961Z,17.30
2023-03-01T23:31:11.533Z,22.07
2023-03-01T23:33:39.672Z,21.17
2023-03-01T23:36:09.790Z,20.90
2023-03-01T23:38:39.512Z,22.27
2023-03-01T23:41:10.521Z,20.83
2023-03-01T23:43:38.652Z,20.67
2023-03-01T23:46:07.285Z,25.00
2023-03-01T23:48:35.513Z,22.73
2023-03-01T23:51:06.099Z,25.10
2023-03-01T23:53:37.029Z,24.80
2023-03-01T23:56:07.899Z,22.50
2023-03-01T23:58:36.060Z,24.90
